createdAt,value
2018-07-04T00:01:44.840Z,1.10
2018-07-04T00:04:06.284Z,1.27
2018-07-04T00:06:27.529Z,1.20
2018-07-04T00:08:49.141Z,1.13
2018-07-04T00:11:10.519Z,1.10
2018-07-04T00:13:31.981Z,1.00
2018-07-04T00:15:53.359Z,1.80
2018-07-04T00:18:14.791Z,1.10
2018-07-04T00:20:41.518Z,1.00
2018-07-04T00:23:02.898Z,1.20
2018-07-04T00:25:24.287Z,1.27
2018-07-04T00:27:45.661Z,1.33
2018-07-04T00:30:07.031Z,1.27
2018-07-04T00:32:28.739Z,1.40
2018-07-04T00:34:50.163Z,1.40
2018-07-04T00:37:11.674Z,2.00
2018-07-04T00:39:32.972Z,1.20
2018-07-04T00:41:54.255Z,1.23
2018-07-04T00:44:15.510Z,1.50
2018-07-04T00:46:36.912Z,1.30
2018-07-04T00:48:58.159Z,1.30
2018-07-04T00:51:19.411Z,1.17
2018-07-04T00:53:40.845Z,1.50
2018-07-04T00:56:02.200Z,1.60
2018-07-04T00:58:23.603Z,1.67
2018-07-04T01:00:44.787Z,1.30
2018-07-04T01:03:06.116Z,1.33
2018-07-04T01:05:27.502Z,1.50
2018-07-04T01:07:48.915Z,1.27
2018-07-04T01:10:04.400Z,1.50
2018-07-04T01:12:25.620Z,1.53
2018-07-04T01:14:47.145Z,1.70
2018-07-04T01:17:08.475Z,1.67
2018-07-04T01:19:29.759Z,1.50
2018-07-04T01:21:51.177Z,1.10
2018-07-04T01:24:12.613Z,1.43
2018-07-04T01:26:34.849Z,1.43
2018-07-04T01:28:56.003Z,1.93
2018-07-04T01:31:17.389Z,1.40
2018-07-04T01:33:38.680Z,1.50
2018-07-04T01:36:00.002Z,1.50
2018-07-04T01:38:21.411Z,1.50
2018-07-04T01:40:42.799Z,1.20
2018-07-04T01:43:04.192Z,1.40
2018-07-04T01:45:25.501Z,1.83
2018-07-04T01:47:46.988Z,1.50
2018-07-04T01:50:08.217Z,1.60
2018-07-04T01:52:29.418Z,1.50
2018-07-04T01:54:50.722Z,1.47
2018-07-04T01:57:12.090Z,1.40
2018-07-04T01:59:33.354Z,1.13
2018-07-04T02:01:54.725Z,1.77
2018-07-04T02:04:16.139Z,1.53
2018-07-04T02:06:37.490Z,1.27
2018-07-04T02:08:58.839Z,1.33
2018-07-04T02:11:20.303Z,1.80
2018-07-04T02:13:41.657Z,1.33
2018-07-04T02:16:02.768Z,1.47
2018-07-04T02:18:24.029Z,1.67
2018-07-04T02:20:45.344Z,1.67
2018-07-04T02:23:06.644Z,1.47
2018-07-04T02:25:28.103Z,1.30
2018-07-04T02:27:49.338Z,1.43
2018-07-04T02:30:10.570Z,1.57
2018-07-04T02:32:31.964Z,1.70
2018-07-04T02:34:57.342Z,1.37
2018-07-04T02:37:18.674Z,1.83
2018-07-04T02:39:40.035Z,1.57
2018-07-04T02:42:01.444Z,1.20
2018-07-04T02:44:22.715Z,1.70
2018-07-04T02:46:44.149Z,1.33
2018-07-04T02:49:05.499Z,1.07
2018-07-04T02:51:26.766Z,1.67
2018-07-04T02:53:48.026Z,1.77
2018-07-04T02:56:09.245Z,1.83
2018-07-04T02:58:30.413Z,1.70
2018-07-04T03:00:51.742Z,1.83
2018-07-04T03:03:13.037Z,1.33
2018-07-04T03:05:34.300Z,1.47
2018-07-04T03:07:55.695Z,1.60
2018-07-04T03:10:16.880Z,1.43
2018-07-04T03:12:38.355Z,2.07
2018-07-04T03:14:59.763Z,1.47
2018-07-04T03:17:21.038Z,1.90
2018-07-04T03:19:42.395Z,1.70
2018-07-04T03:22:03.795Z,1.83
2018-07-04T03:24:25.104Z,2.07
2018-07-04T03:26:46.415Z,1.93
2018-07-04T03:29:07.798Z,1.90
2018-07-04T03:31:29.144Z,1.97
2018-07-04T03:33:50.417Z,1.87
2018-07-04T03:36:11.867Z,1.80
2018-07-04T03:38:33.546Z,3.87
2018-07-04T03:40:54.830Z,2.00
2018-07-04T03:43:16.226Z,1.40
2018-07-04T03:45:37.402Z,1.47
2018-07-04T03:47:58.573Z,1.70
2018-07-04T03:50:19.921Z,1.67
2018-07-04T03:52:41.214Z,2.00
2018-07-04T03:55:02.600Z,2.23
2018-07-04T03:57:23.981Z,1.60
2018-07-04T03:59:45.132Z,1.67
2018-07-04T04:04:15.616Z,1.87
2018-07-04T04:06:36.887Z,1.50
2018-07-04T04:08:58.281Z,2.10
2018-07-04T04:11:19.459Z,2.10
2018-07-04T04:13:40.953Z,1.77
2018-07-04T04:16:02.243Z,1.23
2018-07-04T04:18:24.597Z,2.10
2018-07-04T04:20:46.098Z,2.07
2018-07-04T04:23:07.725Z,2.30
2018-07-04T04:25:29.296Z,2.57
2018-07-04T04:27:50.825Z,2.33
2018-07-04T04:30:12.315Z,2.03
2018-07-04T04:32:34.419Z,2.13
2018-07-04T04:34:56.512Z,2.00
2018-07-04T04:37:17.919Z,2.07
2018-07-04T04:39:33.412Z,2.07
2018-07-04T04:41:54.800Z,2.43
2018-07-04T04:44:10.506Z,2.57
2018-07-04T04:46:34.255Z,1.90
2018-07-04T04:48:55.525Z,2.27
2018-07-04T04:51:17.156Z,1.77
2018-07-04T04:53:38.480Z,1.93
2018-07-04T04:56:00.105Z,2.47
2018-07-04T04:58:21.513Z,2.27
2018-07-04T05:00:42.873Z,2.27
2018-07-04T05:03:04.749Z,2.60
2018-07-04T05:05:26.129Z,1.80
2018-07-04T05:07:47.592Z,2.70
2018-07-04T05:10:09.187Z,2.23
2018-07-04T05:12:30.494Z,1.80
2018-07-04T05:14:52.062Z,2.03
2018-07-04T05:17:13.418Z,2.10
2018-07-04T05:19:35.694Z,2.20
2018-07-04T05:21:57.030Z,2.00
2018-07-04T05:24:19.265Z,2.47
2018-07-04T05:26:40.712Z,2.40
2018-07-04T05:29:02.309Z,2.10
2018-07-04T05:31:23.758Z,2.47
2018-07-04T05:33:45.269Z,1.70
2018-07-04T05:36:06.539Z,2.40
2018-07-04T05:38:27.832Z,3.07
2018-07-04T05:40:49.296Z,2.20
2018-07-04T05:43:10.527Z,2.57
2018-07-04T05:45:31.946Z,2.07
2018-07-04T05:47:53.364Z,1.90
2018-07-04T05:50:14.595Z,2.97
2018-07-04T05:52:36.795Z,2.83
2018-07-04T05:54:59.023Z,1.80
2018-07-04T05:57:20.549Z,2.03
2018-07-04T05:59:41.953Z,1.90
2018-07-04T06:02:03.235Z,2.43
2018-07-04T06:04:24.546Z,2.63
2018-07-04T06:06:45.941Z,2.40
2018-07-04T06:09:07.294Z,2.10
2018-07-04T06:11:28.743Z,3.40
2018-07-04T06:13:51.076Z,2.33
2018-07-04T06:16:12.455Z,3.00
2018-07-04T06:18:33.725Z,2.60
2018-07-04T06:21:00.838Z,2.23
2018-07-04T06:23:22.214Z,2.80
2018-07-04T06:25:43.924Z,2.00
2018-07-04T06:28:06.688Z,2.03
2018-07-04T06:30:28.130Z,2.13
2018-07-04T06:32:51.257Z,2.40
2018-07-04T06:35:12.596Z,2.20
2018-07-04T06:37:43.129Z,2.20
2018-07-04T06:39:46.125Z,2.53
2018-07-04T06:41:50.159Z,2.77
2018-07-04T06:43:53.468Z,2.20
2018-07-04T06:45:56.636Z,1.90
2018-07-04T06:47:59.559Z,2.10
2018-07-04T06:50:02.523Z,2.40
2018-07-04T06:52:05.551Z,1.93
2018-07-04T06:54:08.622Z,2.60
2018-07-04T06:56:11.487Z,1.97
2018-07-04T06:58:14.389Z,2.20
2018-07-04T07:00:17.448Z,2.07
2018-07-04T07:02:21.241Z,1.97
2018-07-04T07:04:42.668Z,1.70
2018-07-04T07:07:04.183Z,2.43
2018-07-04T07:09:25.504Z,1.50
2018-07-04T07:11:47.253Z,2.03
2018-07-04T07:14:09.730Z,3.03
2018-07-04T07:16:30.987Z,1.97
2018-07-04T07:18:52.367Z,2.10
2018-07-04T07:21:13.679Z,1.90
2018-07-04T07:23:35.969Z,2.10
2018-07-04T07:25:57.773Z,1.77
2018-07-04T07:28:19.265Z,2.00
2018-07-04T07:30:41.834Z,2.10
2018-07-04T07:33:03.255Z,1.57
2018-07-04T07:35:24.687Z,1.70
2018-07-04T07:37:46.100Z,2.40
2018-07-04T07:40:07.507Z,2.00
2018-07-04T07:42:28.943Z,1.83
2018-07-04T07:44:50.104Z,2.50
2018-07-04T07:47:11.523Z,2.07
2018-07-04T07:49:32.741Z,2.50
2018-07-04T07:51:54.312Z,2.30
2018-07-04T07:54:16.084Z,2.53
2018-07-04T07:56:37.281Z,2.50
2018-07-04T07:58:59.106Z,1.70
2018-07-04T08:01:20.593Z,1.80
2018-07-04T08:03:42.900Z,1.43
2018-07-04T08:06:04.385Z,2.20
2018-07-04T08:08:27.360Z,1.77
2018-07-04T08:10:49.579Z,2.43
2018-07-04T08:13:10.921Z,1.80
2018-07-04T08:15:33.768Z,2.20
2018-07-04T08:17:55.078Z,1.90
2018-07-04T08:20:16.523Z,2.10
2018-07-04T08:22:39.896Z,2.50
2018-07-04T08:25:03.492Z,2.33
2018-07-04T08:27:25.389Z,2.53
2018-07-04T08:29:46.716Z,2.40
2018-07-04T08:32:08.311Z,2.33
2018-07-04T08:34:30.914Z,2.40
2018-07-04T08:36:53.549Z,2.70
2018-07-04T08:39:17.886Z,2.77
2018-07-04T08:41:39.432Z,2.53
2018-07-04T08:44:00.943Z,2.50
2018-07-04T08:46:22.453Z,2.40
2018-07-04T08:48:43.920Z,2.63
2018-07-04T08:51:05.271Z,2.20
2018-07-04T08:53:26.490Z,2.13
2018-07-04T08:55:48.565Z,2.70
2018-07-04T08:58:10.151Z,1.70
2018-07-04T09:00:31.440Z,2.30
2018-07-04T09:02:52.941Z,1.97
2018-07-04T09:05:14.805Z,1.93
2018-07-04T09:07:36.387Z,1.83
2018-07-04T09:09:57.796Z,2.10
2018-07-04T09:12:19.240Z,1.90
2018-07-04T09:14:40.726Z,1.63
2018-07-04T09:17:02.318Z,1.30
2018-07-04T09:19:23.726Z,1.67
2018-07-04T09:21:45.106Z,1.33
2018-07-04T09:24:06.501Z,1.73
2018-07-04T09:26:27.887Z,1.40
2018-07-04T09:28:49.853Z,1.50
2018-07-04T09:31:12.178Z,1.93
2018-07-04T09:33:33.970Z,1.50
2018-07-04T09:35:55.454Z,1.30
2018-07-04T09:38:17.833Z,1.67
2018-07-04T09:40:40.057Z,2.07
2018-07-04T09:43:02.260Z,2.13
2018-07-04T09:45:24.042Z,1.60
2018-07-04T09:47:45.595Z,1.93
2018-07-04T09:50:06.941Z,1.57
2018-07-04T09:52:28.884Z,2.30
2018-07-04T09:54:50.147Z,1.63
2018-07-04T09:57:11.427Z,2.13
2018-07-04T09:59:33.570Z,1.87
2018-07-04T10:01:55.779Z,2.57
2018-07-04T10:04:20.195Z,3.17
2018-07-04T10:06:42.063Z,2.70
2018-07-04T10:09:04.746Z,2.10
2018-07-04T10:11:26.171Z,2.93
2018-07-04T10:13:48.197Z,2.77
2018-07-04T10:16:10.241Z,2.70
2018-07-04T10:18:38.083Z,3.30
2018-07-04T10:21:01.503Z,2.40
2018-07-04T10:23:23.304Z,2.60
2018-07-04T10:25:44.758Z,2.53
2018-07-04T10:28:06.027Z,2.90
2018-07-04T10:30:27.446Z,2.90
2018-07-04T10:32:49.226Z,2.60
2018-07-04T10:35:10.547Z,2.27
2018-07-04T10:37:32.915Z,3.80
2018-07-04T10:39:54.306Z,3.17
2018-07-04T10:42:15.972Z,2.67
2018-07-04T10:44:37.564Z,3.00
2018-07-04T10:46:59.511Z,2.50
2018-07-04T10:49:20.874Z,2.93
2018-07-04T10:51:42.986Z,3.30
2018-07-04T10:54:04.515Z,3.90
2018-07-04T10:56:25.869Z,4.30
2018-07-04T10:58:47.302Z,3.40
2018-07-04T11:01:08.703Z,3.60
2018-07-04T11:03:29.996Z,3.53
2018-07-04T11:05:51.461Z,4.70
2018-07-04T11:08:12.759Z,4.70
2018-07-04T11:10:34.590Z,5.23
2018-07-04T11:12:56.042Z,4.90
2018-07-04T11:15:17.997Z,5.70
2018-07-04T11:17:39.385Z,5.47
2018-07-04T11:20:00.809Z,4.67
2018-07-04T11:22:22.292Z,5.17
2018-07-04T11:24:43.626Z,4.07
2018-07-04T11:27:05.460Z,4.50
2018-07-04T11:29:26.834Z,3.20
2018-07-04T11:31:48.354Z,2.77
2018-07-04T11:34:10.339Z,1.93
2018-07-04T11:36:32.383Z,2.47
2018-07-04T11:38:54.575Z,2.93
2018-07-04T11:41:15.920Z,2.00
2018-07-04T11:43:37.370Z,2.83
2018-07-04T11:45:56.800Z,2.77
2018-07-04T11:48:00.044Z,2.47
2018-07-04T11:50:03.011Z,2.90
2018-07-04T11:52:06.057Z,2.37
2018-07-04T11:54:09.109Z,2.73
2018-07-04T11:56:12.080Z,2.77
2018-07-04T11:58:15.658Z,1.90
2018-07-04T12:00:18.725Z,3.33
2018-07-04T12:02:21.677Z,2.50
2018-07-04T12:04:43.146Z,2.80
2018-07-04T12:07:06.978Z,1.60
2018-07-04T12:09:10.921Z,1.97
2018-07-04T12:11:13.879Z,2.27
2018-07-04T12:13:17.908Z,2.43
2018-07-04T12:15:20.912Z,2.27
2018-07-04T12:17:24.621Z,2.33
2018-07-04T12:19:27.802Z,2.20
2018-07-04T12:21:30.793Z,2.40
2018-07-04T12:23:34.275Z,2.27
2018-07-04T12:25:37.427Z,2.20
2018-07-04T12:27:40.320Z,2.77
2018-07-04T12:29:43.215Z,1.90
2018-07-04T12:31:46.162Z,2.30
2018-07-04T12:33:49.866Z,2.27
2018-07-04T12:35:53.253Z,2.10
2018-07-04T12:37:57.007Z,1.93
2018-07-04T12:39:59.974Z,2.27
2018-07-04T12:42:02.963Z,1.83
2018-07-04T12:44:06.043Z,2.20
2018-07-04T12:46:09.019Z,2.10
2018-07-04T12:48:12.070Z,2.10
2018-07-04T12:50:27.151Z,2.00
2018-07-04T12:52:31.278Z,2.90
2018-07-04T12:54:39.348Z,2.50
2018-07-04T12:57:00.924Z,1.90
2018-07-04T12:59:22.783Z,2.00
2018-07-04T13:01:44.309Z,2.83
2018-07-04T13:04:06.836Z,2.37
2018-07-04T13:06:28.667Z,2.97
2018-07-04T13:08:55.972Z,3.20
2018-07-04T13:11:17.431Z,2.60
2018-07-04T13:13:40.347Z,3.10
2018-07-04T13:16:05.799Z,3.00
2018-07-04T13:18:32.988Z,2.97
2018-07-04T13:20:55.735Z,3.03
2018-07-04T13:23:17.225Z,3.23
2018-07-04T13:25:39.082Z,3.37
2018-07-04T13:28:00.410Z,2.80
2018-07-04T13:30:22.353Z,3.20
2018-07-04T13:32:44.091Z,3.20
2018-07-04T13:35:05.412Z,3.00
2018-07-04T13:37:27.031Z,2.90
2018-07-04T13:39:48.500Z,2.83
2018-07-04T13:42:13.919Z,3.40
2018-07-04T13:44:38.499Z,3.30
2018-07-04T13:47:02.281Z,3.97
2018-07-04T13:49:24.465Z,3.23
2018-07-04T13:51:45.886Z,3.20
2018-07-04T13:54:07.553Z,3.20
2018-07-04T13:56:28.960Z,3.10
2018-07-04T13:58:51.252Z,3.13
2018-07-04T14:01:12.595Z,3.27
2018-07-04T14:03:33.949Z,3.17
2018-07-04T14:05:56.015Z,3.30
2018-07-04T14:08:18.150Z,3.63
2018-07-04T14:10:39.673Z,3.03
2018-07-04T14:13:01.289Z,3.30
2018-07-04T14:15:22.945Z,3.80
2018-07-04T14:17:45.215Z,3.57
2018-07-04T14:20:07.092Z,3.40
2018-07-04T14:22:28.690Z,3.93
2018-07-04T14:24:50.231Z,4.27
2018-07-04T14:27:11.886Z,4.30
2018-07-04T14:29:33.378Z,3.20
2018-07-04T14:31:54.779Z,3.37
2018-07-04T14:34:16.204Z,3.10
2018-07-04T14:36:37.498Z,3.57
2018-07-04T14:38:59.296Z,3.07
2018-07-04T14:41:21.885Z,3.47
2018-07-04T14:43:43.457Z,3.77
2018-07-04T14:46:04.998Z,3.37
2018-07-04T14:48:26.485Z,4.07
2018-07-04T14:50:48.827Z,3.60
2018-07-04T14:53:10.311Z,3.47
2018-07-04T14:55:31.690Z,3.50
2018-07-04T14:57:53.438Z,5.23
2018-07-04T15:00:15.000Z,3.00
2018-07-04T15:02:36.459Z,3.20
2018-07-04T15:04:58.152Z,3.17
2018-07-04T15:07:21.307Z,3.20
2018-07-04T15:09:42.632Z,3.80
2018-07-04T15:12:04.210Z,2.43
2018-07-04T15:14:26.826Z,2.53
2018-07-04T15:16:48.818Z,3.80
2018-07-04T15:19:10.469Z,3.50
2018-07-04T15:21:34.826Z,3.47
2018-07-04T15:23:56.416Z,2.80
2018-07-04T15:26:17.952Z,3.17
2018-07-04T15:28:40.630Z,3.40
2018-07-04T15:31:02.030Z,3.90
2018-07-04T15:33:23.533Z,3.80
2018-07-04T15:35:45.039Z,2.87
2018-07-04T15:38:06.455Z,3.90
2018-07-04T15:40:28.082Z,3.00
2018-07-04T15:42:49.993Z,3.20
2018-07-04T15:45:11.418Z,3.27
2018-07-04T15:47:36.592Z,3.83
2018-07-04T15:49:58.026Z,3.60
2018-07-04T15:52:19.442Z,3.20
2018-07-04T15:54:40.842Z,4.20
2018-07-04T15:57:02.277Z,4.33
2018-07-04T15:59:23.934Z,4.20
2018-07-04T16:01:45.196Z,4.03
2018-07-04T16:04:06.548Z,4.37
2018-07-04T16:06:28.429Z,3.77
2018-07-04T16:08:50.978Z,3.70
2018-07-04T16:11:12.322Z,3.57
2018-07-04T16:13:33.935Z,3.53
2018-07-04T16:15:55.530Z,3.90
2018-07-04T16:18:17.068Z,3.20
2018-07-04T16:20:38.682Z,3.53
2018-07-04T16:23:00.128Z,3.60
2018-07-04T16:25:21.493Z,4.30
2018-07-04T16:27:42.808Z,4.00
2018-07-04T16:30:04.381Z,3.57
2018-07-04T16:32:26.227Z,4.17
2018-07-04T16:34:56.491Z,3.60
2018-07-04T16:37:19.694Z,3.00
2018-07-04T16:39:42.757Z,3.60
2018-07-04T16:42:04.242Z,3.37
2018-07-04T16:44:25.769Z,4.27
2018-07-04T16:46:47.296Z,4.03
2018-07-04T16:49:08.703Z,4.07
2018-07-04T16:51:24.240Z,3.80
2018-07-04T16:53:45.528Z,4.23
2018-07-04T16:56:07.112Z,4.70
2018-07-04T16:58:22.438Z,3.20
2018-07-04T17:00:44.071Z,4.30
2018-07-04T17:03:05.510Z,3.30
2018-07-04T17:05:26.968Z,4.47
2018-07-04T17:07:48.364Z,4.20
2018-07-04T17:10:03.952Z,4.10
2018-07-04T17:12:25.265Z,4.00
2018-07-04T17:14:47.056Z,3.20
2018-07-04T17:17:08.672Z,3.70
2018-07-04T17:19:30.191Z,3.00
2018-07-04T17:21:51.696Z,4.20
2018-07-04T17:24:13.139Z,3.63
2018-07-04T17:26:28.647Z,3.37
2018-07-04T17:28:49.972Z,4.53
2018-07-04T17:31:11.584Z,3.60
2018-07-04T17:33:33.089Z,3.90
2018-07-04T17:35:55.875Z,4.33
2018-07-04T17:38:18.334Z,3.80
2018-07-04T17:40:41.170Z,3.53
2018-07-04T17:43:02.395Z,3.27
2018-07-04T17:45:23.791Z,3.87
2018-07-04T17:47:45.301Z,4.80
2018-07-04T17:50:06.579Z,4.53
2018-07-04T17:52:28.168Z,4.40
2018-07-04T17:54:49.474Z,3.83
2018-07-04T17:57:10.922Z,3.93
2018-07-04T17:59:32.449Z,3.80
2018-07-04T18:01:53.818Z,3.30
2018-07-04T18:04:15.412Z,3.20
2018-07-04T18:06:36.764Z,3.87
2018-07-04T18:08:58.158Z,3.87
2018-07-04T18:11:19.594Z,3.47
2018-07-04T18:13:41.038Z,3.47
2018-07-04T18:16:02.490Z,5.47
2018-07-04T18:18:23.884Z,5.80
2018-07-04T18:22:46.185Z,4.20
2018-07-04T18:25:08.073Z,4.12
2018-07-04T18:27:29.733Z,3.42
2018-07-04T18:29:51.497Z,4.70
2018-07-04T18:32:13.752Z,3.92
2018-07-04T18:34:35.137Z,4.00
2018-07-04T18:36:59.065Z,3.55
2018-07-04T18:39:20.392Z,3.77
2018-07-04T18:41:41.746Z,4.95
2018-07-04T18:44:03.405Z,4.10
2018-07-04T18:46:25.412Z,4.87
2018-07-04T18:48:46.896Z,4.00
2018-07-04T18:51:08.438Z,3.30
2018-07-04T18:53:30.084Z,3.30
2018-07-04T18:55:51.601Z,4.80
2018-07-04T18:58:13.088Z,11.83
2018-07-04T19:00:34.559Z,6.60
2018-07-04T19:02:56.324Z,4.10
2018-07-04T19:05:17.919Z,4.67
2018-07-04T19:07:40.081Z,3.70
2018-07-04T19:10:01.708Z,3.40
2018-07-04T19:12:24.367Z,3.73
2018-07-04T19:14:45.780Z,4.03
2018-07-04T19:17:07.564Z,3.50
2018-07-04T19:19:28.919Z,3.70
2018-07-04T19:21:50.392Z,3.40
2018-07-04T19:24:11.612Z,3.70
2018-07-04T19:26:36.849Z,4.00
2018-07-04T19:28:58.182Z,2.90
2018-07-04T19:31:19.496Z,3.80
2018-07-04T19:33:41.252Z,3.60
2018-07-04T19:36:02.861Z,3.93
2018-07-04T19:38:24.570Z,3.43
2018-07-04T19:42:51.078Z,3.57
2018-07-04T19:45:12.596Z,3.87
2018-07-04T19:47:28.220Z,3.17
2018-07-04T19:49:50.186Z,3.73
2018-07-04T19:52:11.769Z,3.60
2018-07-04T19:54:33.131Z,4.70
2018-07-04T19:56:54.774Z,4.13
2018-07-04T19:59:16.157Z,2.80
2018-07-04T20:01:37.711Z,4.00
2018-07-04T20:03:59.204Z,3.37
2018-07-04T20:06:20.753Z,3.47
2018-07-04T20:10:50.726Z,3.57
2018-07-04T20:13:12.415Z,3.07
2018-07-04T20:15:39.699Z,3.60
2018-07-04T20:18:02.215Z,3.67
2018-07-04T20:20:23.956Z,3.70
2018-07-04T20:22:45.465Z,3.83
2018-07-04T20:25:07.176Z,4.33
2018-07-04T20:27:28.560Z,4.50
2018-07-04T20:29:50.762Z,4.00
2018-07-04T20:32:14.179Z,4.43
2018-07-04T20:34:37.084Z,4.70
2018-07-04T20:36:59.397Z,4.70
2018-07-04T20:39:21.619Z,5.03
2018-07-04T20:41:43.316Z,4.63
2018-07-04T20:44:05.434Z,5.00
2018-07-04T20:46:27.027Z,4.10
2018-07-04T20:48:48.203Z,4.80
2018-07-04T20:51:09.591Z,4.57
2018-07-04T20:53:30.983Z,4.57
2018-07-04T20:55:52.411Z,4.40
2018-07-04T20:58:16.644Z,4.47
2018-07-04T21:00:38.846Z,4.50
2018-07-04T21:03:00.135Z,5.40
2018-07-04T21:05:21.495Z,4.57
2018-07-04T21:07:42.954Z,5.07
2018-07-04T21:10:05.671Z,5.13
2018-07-04T21:12:27.113Z,4.43
2018-07-04T21:14:48.311Z,4.43
2018-07-04T21:17:09.599Z,5.13
2018-07-04T21:19:31.002Z,4.60
2018-07-04T21:21:52.743Z,3.90
2018-07-04T21:24:14.029Z,4.93
2018-07-04T21:26:35.620Z,4.13
2018-07-04T21:28:57.125Z,4.40
2018-07-04T21:31:18.553Z,4.57
2018-07-04T21:33:39.978Z,4.50
2018-07-04T21:36:01.379Z,4.47
2018-07-04T21:38:22.875Z,4.93
2018-07-04T21:40:44.170Z,4.27
2018-07-04T21:43:05.673Z,5.13
2018-07-04T21:45:28.235Z,5.20
2018-07-04T21:47:49.482Z,4.87
2018-07-04T21:50:11.166Z,4.60
2018-07-04T21:52:32.420Z,5.17
2018-07-04T21:54:53.890Z,5.00
2018-07-04T21:57:15.340Z,5.17
2018-07-04T21:59:36.753Z,5.40
2018-07-04T22:01:58.179Z,5.07
2018-07-04T22:04:20.212Z,4.90
2018-07-04T22:06:41.752Z,4.50
2018-07-04T22:09:03.072Z,5.13
2018-07-04T22:11:24.798Z,4.30
2018-07-04T22:13:46.201Z,4.20
2018-07-04T22:16:07.400Z,4.40
2018-07-04T22:18:28.701Z,4.70
2018-07-04T22:20:50.186Z,4.70
2018-07-04T22:23:11.702Z,5.00
2018-07-04T22:25:33.160Z,4.23
2018-07-04T22:27:54.709Z,4.47
2018-07-04T22:30:15.935Z,4.50
2018-07-04T22:32:37.645Z,4.20
2018-07-04T22:34:59.002Z,4.60
2018-07-04T22:37:20.414Z,4.60
2018-07-04T22:39:41.909Z,3.87
2018-07-04T22:42:03.272Z,4.43
2018-07-04T22:44:24.587Z,4.70
2018-07-04T22:46:46.005Z,4.33
2018-07-04T22:49:07.236Z,4.47
2018-07-04T22:51:28.545Z,4.90
2018-07-04T22:53:49.965Z,4.50
2018-07-04T22:56:11.275Z,4.60
2018-07-04T22:58:32.687Z,4.83
2018-07-04T23:00:54.607Z,4.50
2018-07-04T23:03:16.090Z,4.57
2018-07-04T23:05:37.413Z,4.90
2018-07-04T23:07:59.384Z,5.10
2018-07-04T23:10:21.689Z,5.33
2018-07-04T23:12:43.353Z,4.37
2018-07-04T23:15:04.741Z,5.17
2018-07-04T23:17:26.539Z,5.33
2018-07-04T23:19:47.836Z,5.20
2018-07-04T23:22:09.219Z,4.90
2018-07-04T23:24:30.842Z,4.87
2018-07-04T23:26:52.281Z,4.33
2018-07-04T23:29:13.705Z,4.17
2018-07-04T23:31:34.994Z,4.53
2018-07-04T23:33:56.474Z,5.53
2018-07-04T23:36:17.800Z,4.47
2018-07-04T23:38:39.221Z,4.90
2018-07-04T23:41:00.565Z,5.53
2018-07-04T23:43:21.904Z,5.23
2018-07-04T23:45:43.467Z,4.80
2018-07-04T23:48:04.815Z,4.83
2018-07-04T23:50:26.343Z,5.20
2018-07-04T23:52:47.438Z,5.13
2018-07-04T23:55:09.080Z,4.57
2018-07-04T23:57:30.687Z,5.20
2018-07-04T23:59:52.014Z,5.40
